Airfield :
LOGIN :

Register | Disclaimer

   EN    FR    IT 

 










Legend :    VFR   Marginal VFR   IFR   Intensive IFR   Very Intensive IFR
Visi :
Ceiling :
>= 8 km
>= 3000ft
5 to 8 km
1000 to 3000 ft
1500m to 5 km
500 to 1000 ft
800 to 1500m
200 to 500 ft
< 800m
< 200 ft
Symbols :   Thunderstorms  Fog  Heavy snow  Heavy precipitations  Wind > 20 kt
SIGMETs :     Misc.  Thunderstorms  Icing  Turbulence  Mountain Waves  Volcanic Ashes







- Airport Elevation : 74 ft
- IATA code : MRS
- Download approach charts


LFML - Marseille / Marignane

CURRENT METAR :
  • 171400Z AUTO 21011KT CAVOK 29/17 Q1014 NOSIG

EXPIRED METARs :
  • 171330Z AUTO 21008KT CAVOK 29/18 Q1014 NOSIG
  • 171300Z AUTO 22007KT 180V260 CAVOK 30/18 Q1014 NOSIG
  • 171230Z AUTO 26006KT CAVOK 29/18 Q1015 BECMG 17010KT
  • 171200Z AUTO 27005KT CAVOK 29/17 Q1015 BECMG 17010KT
  • 171130Z AUTO 27004KT 250V310 CAVOK 28/16 Q1015 BECMG 17010KT

TAF TAF LFML
Valid from the 17 at 09:00 until the 18 at 15:00 UTC


170800Z 1709/1815 VRB05KT CAVOK TX30/1712Z TN17/1806Z
BECMG 1713/1714 17010KT
BECMG 1722/1723 VRB05KT
BECMG 1813/1815 18010KT
ATIS : +33 4 42 31 15 15
No reported NOTAMs for that airfield.



MET'MAP, your aeronautical weather chart ! - Copyright ORBIFLY December 2007 - Disclaimer

ORBIFLY MET'MAP TEAM :

Programming & Development : Alexandra Zaïnal
Concept & Development : Baudouin d'Aumeries
Co-Development & Prog : Marc-Olivier Méhu
Technical & hardware support : Manuel Goepfert

Contact : metmap@orbifly.com




SOURCES & CREDITS :

   NOAA